Time;durP1;ratioP1;P1;durP2;ratioP2;P2;SDS_P1;SDS_P2;PMS_P1;PMS_P2;Temp;Humidity;BMP_temperature;BMP_pressure;BME280_temperature;BME280_humidity;BME280_pressure;Samples;Min_cycle;Max_cycle;Signal;HPM_P1;HPM_P2
2021/07/09 00:01:27;;;;;;;2.40;1.80;;;17.50;89.00;;;;;;5033252;28;20044;-77
2021/07/09 00:03:52;;;;;;;3.65;2.50;;;17.40;89.00;;;;;;5031727;28;20029;-77
2021/07/09 00:06:21;;;;;;;4.15;3.05;;;17.40;89.10;;;;;;5033310;28;20470;-77
2021/07/09 00:08:46;;;;;;;3.83;2.35;;;17.40;89.10;;;;;;5033177;28;20466;-76
2021/07/09 00:11:12;;;;;;;2.72;2.08;;;17.30;89.10;;;;;;5041025;28;20037;-76
2021/07/09 00:13:38;;;;;;;3.20;2.50;;;17.40;89.90;;;;;;5052728;28;20462;-76
2021/07/09 00:16:04;;;;;;;2.05;1.50;;;17.30;89.20;;;;;;5053204;28;20481;-76
2021/07/09 00:18:30;;;;;;;2.97;1.90;;;17.40;89.20;;;;;;5052746;28;20104;-76
2021/07/09 00:20:55;;;;;;;3.20;1.80;;;17.40;89.10;;;;;;5052633;28;20105;-76
2021/07/09 00:23:21;;;;;;;3.15;2.00;;;17.40;89.10;;;;;;5052520;28;20099;-75
2021/07/09 00:25:47;;;;;;;2.42;1.40;;;17.30;89.10;;;;;;5051538;28;20381;-76
2021/07/09 00:28:13;;;;;;;4.30;3.15;;;17.30;89.30;;;;;;5052716;28;20536;-76
2021/07/09 00:30:38;;;;;;;3.72;2.38;;;17.20;89.30;;;;;;5034931;28;20025;-76
2021/07/09 00:33:04;;;;;;;3.08;2.25;;;17.20;89.40;;;;;;5052450;28;20056;-75
2021/07/09 00:35:30;;;;;;;2.83;2.22;;;17.20;89.40;;;;;;5052818;28;20017;-75
2021/07/09 00:37:55;;;;;;;2.95;2.25;;;17.20;89.50;;;;;;5053130;28;20029;-75
2021/07/09 00:40:21;;;;;;;3.10;2.72;;;17.20;89.50;;;;;;5056090;28;20033;-76
2021/07/09 00:42:46;;;;;;;4.05;2.75;;;17.20;89.50;;;;;;5038797;28;20033;-76
2021/07/09 00:45:13;;;;;;;3.70;2.45;;;17.20;89.60;;;;;;5056299;28;20021;-75
2021/07/09 00:47:44;;;;;;;3.28;2.70;;;17.10;89.60;;;;;;5057010;28;20033;-75
2021/07/09 00:50:10;;;;;;;4.20;3.00;;;17.10;89.60;;;;;;5056160;28;20381;-75
2021/07/09 00:52:36;;;;;;;4.93;3.20;;;17.00;89.70;;;;;;5057036;28;20104;-75
2021/07/09 00:55:03;;;;;;;4.35;3.08;;;17.00;89.80;;;;;;5055849;28;20104;-75
2021/07/09 00:57:29;;;;;;;3.22;2.50;;;17.00;89.90;;;;;;5056388;28;20029;-74
2021/07/09 00:59:55;;;;;;;4.82;2.88;;;16.90;89.90;;;;;;5056291;28;20025;-76
2021/07/09 01:02:23;;;;;;;4.93;3.17;;;16.90;89.90;;;;;;5038542;28;20069;-76
2021/07/09 01:04:49;;;;;;;4.60;3.03;;;16.90;89.80;;;;;;5056384;28;20024;-74
2021/07/09 01:07:14;;;;;;;2.47;2.00;;;16.80;90.00;;;;;;5055993;28;20043;-75
2021/07/09 01:09:40;;;;;;;3.38;2.20;;;16.80;90.00;;;;;;5055503;28;20100;-76
2021/07/09 01:12:06;;;;;;;3.38;2.50;;;16.80;90.00;;;;;;5055902;28;20092;-76
2021/07/09 01:14:31;;;;;;;4.47;2.88;;;16.80;90.00;;;;;;5056852;28;20032;-76
2021/07/09 01:16:57;;;;;;;3.20;2.83;;;16.70;90.00;;;;;;5055922;28;20033;-76
2021/07/09 01:19:22;;;;;;;4.30;2.75;;;16.70;90.10;;;;;;5056068;28;20033;-75
2021/07/09 01:21:49;;;;;;;5.75;3.72;;;16.70;90.10;;;;;;5055817;28;20074;-77
2021/07/09 01:24:16;;;;;;;6.32;3.65;;;16.60;90.10;;;;;;5056177;28;20056;-75
2021/07/09 01:26:43;;;;;;;6.32;4.50;;;16.60;90.20;;;;;;5056405;28;20031;-75
2021/07/09 01:29:09;;;;;;;4.95;3.80;;;16.50;90.20;;;;;;5055950;28;20025;-76
2021/07/09 01:31:37;;;;;;;5.05;3.55;;;16.50;90.20;;;;;;5056197;28;20036;-75
2021/07/09 01:34:05;;;;;;;4.53;2.90;;;16.50;90.30;;;;;;5055963;28;20040;-76
2021/07/09 01:36:31;;;;;;;5.18;3.40;;;16.50;90.30;;;;;;5070716;28;20029;-75
2021/07/09 01:38:59;;;;;;;4.45;2.97;;;16.40;90.30;;;;;;5055834;28;20493;-76
2021/07/09 01:41:25;;;;;;;5.20;3.42;;;16.40;90.30;;;;;;5055849;28;20102;-76
2021/07/09 01:43:50;;;;;;;4.47;3.38;;;16.40;90.30;;;;;;5055384;28;20466;-74
2021/07/09 01:46:19;;;;;;;5.47;3.45;;;16.40;90.30;;;;;;5037879;28;20075;-74
2021/07/09 01:48:45;;;;;;;3.85;2.63;;;16.40;90.30;;;;;;5055512;28;20017;-76
2021/07/09 01:51:11;;;;;;;5.57;3.55;;;16.40;90.30;;;;;;5053890;28;20051;-76
2021/07/09 01:53:36;;;;;;;5.03;3.67;;;16.30;90.30;;;;;;5053941;28;20473;-76
2021/07/09 01:56:02;;;;;;;5.35;3.33;;;16.40;90.30;;;;;;5035858;28;20458;-76
2021/07/09 01:58:27;;;;;;;5.75;3.85;;;16.30;90.30;;;;;;5043585;28;20057;-75
2021/07/09 02:00:53;;;;;;;6.15;4.03;;;16.30;90.30;;;;;;5055764;28;20028;-76
2021/07/09 02:03:19;;;;;;;5.40;3.13;;;16.30;90.30;;;;;;5055859;28;20029;-76
2021/07/09 02:05:45;;;;;;;6.30;3.80;;;16.30;90.30;;;;;;5055216;28;20427;-75
2021/07/09 02:08:10;;;;;;;4.80;3.40;;;16.30;90.30;;;;;;5055167;28;20529;-74
2021/07/09 02:10:39;;;;;;;5.20;3.10;;;16.30;90.30;;;;;;5055392;28;20041;-75
2021/07/09 02:13:04;;;;;;;5.15;3.75;;;16.30;90.30;;;;;;5054995;28;20039;-76
2021/07/09 02:15:34;;;;;;;4.40;3.28;;;16.30;90.30;;;;;;5055114;28;20021;-76
2021/07/09 02:18:00;;;;;;;5.43;3.22;;;16.30;90.30;;;;;;5055262;28;20025;-75
2021/07/09 02:20:27;;;;;;;5.60;3.60;;;16.30;90.40;;;;;;5053493;28;20112;-75
2021/07/09 02:22:57;;;;;;;5.20;3.60;;;16.30;90.40;;;;;;5054529;28;20033;-75
2021/07/09 02:25:23;;;;;;;7.05;3.80;;;16.30;90.40;;;;;;5054949;28;20095;-75
2021/07/09 02:27:50;;;;;;;6.35;4.10;;;16.30;90.40;;;;;;5055144;28;20103;-75
2021/07/09 02:30:16;;;;;;;4.88;3.10;;;16.30;90.50;;;;;;5055071;28;20021;-75
2021/07/09 02:32:43;;;;;;;3.80;2.47;;;16.20;90.50;;;;;;5054817;28;20025;-76
2021/07/09 02:35:11;;;;;;;3.83;2.42;;;16.20;90.50;;;;;;5054060;28;20033;-77
2021/07/09 02:37:37;;;;;;;3.00;2.30;;;16.30;90.50;;;;;;5037153;28;20045;-75
2021/07/09 02:40:07;;;;;;;3.75;2.53;;;16.30;90.50;;;;;;5054832;28;20029;-76
2021/07/09 02:42:33;;;;;;;4.03;2.42;;;16.20;90.40;;;;;;5054488;28;20036;-76
2021/07/09 02:44:59;;;;;;;4.03;2.58;;;16.20;90.40;;;;;;5055049;28;20017;-76
2021/07/09 02:47:25;;;;;;;2.97;2.20;;;16.20;90.40;;;;;;5054636;28;20110;-76
2021/07/09 02:49:50;;;;;;;3.92;2.90;;;16.20;90.50;;;;;;5053911;28;20110;-75
2021/07/09 02:52:16;;;;;;;2.67;2.13;;;16.20;90.50;;;;;;5054531;28;20540;-76
2021/07/09 02:54:42;;;;;;;2.53;1.90;;;16.10;90.50;;;;;;5054248;28;20032;-74
2021/07/09 02:57:08;;;;;;;2.25;1.75;;;16.10;90.50;;;;;;5054757;28;20052;-75
2021/07/09 02:59:34;;;;;;;4.13;2.30;;;16.10;90.50;;;;;;5036410;28;20489;-76
2021/07/09 03:01:59;;;;;;;2.35;1.60;;;16.10;90.50;;;;;;5053998;28;20052;-75
2021/07/09 03:04:25;;;;;;;2.85;2.05;;;16.10;90.50;;;;;;5053963;28;20028;-75
2021/07/09 03:06:50;;;;;;;2.90;2.10;;;16.10;90.50;;;;;;5036545;28;20025;-76
2021/07/09 03:09:16;;;;;;;2.72;1.85;;;16.10;90.50;;;;;;5036488;28;20043;-76
2021/07/09 03:11:42;;;;;;;1.98;1.75;;;16.20;90.50;;;;;;5054049;28;20041;-75
2021/07/09 03:14:08;;;;;;;3.25;1.88;;;16.20;90.50;;;;;;5054165;28;20454;-76
2021/07/09 03:16:34;;;;;;;3.58;2.15;;;16.20;90.50;;;;;;5054268;28;20025;-76
2021/07/09 03:19:00;;;;;;;2.58;1.80;;;16.20;90.50;;;;;;5053137;28;20025;-75
2021/07/09 03:21:26;;;;;;;3.03;2.13;;;16.30;90.50;;;;;;5053510;28;20103;-76
2021/07/09 03:23:52;;;;;;;3.60;2.05;;;16.30;90.50;;;;;;5053393;28;20104;-74
2021/07/09 03:26:17;;;;;;;3.42;1.73;;;16.40;90.50;;;;;;5054106;28;20021;-76
2021/07/09 03:28:43;;;;;;;2.88;1.75;;;16.30;90.40;;;;;;5054047;28;20033;-76
2021/07/09 03:31:08;;;;;;;2.70;2.10;;;16.30;90.50;;;;;;5053751;28;20017;-76
2021/07/09 03:33:35;;;;;;;3.50;2.13;;;16.30;90.50;;;;;;5053007;28;20086;-76
2021/07/09 03:36:01;;;;;;;3.67;1.70;;;16.30;90.60;;;;;;5035858;28;20477;-75
2021/07/09 03:38:26;;;;;;;3.47;1.80;;;16.30;90.60;;;;;;5053371;28;20432;-74
2021/07/09 03:40:52;;;;;;;2.85;1.95;;;16.20;90.60;;;;;;5053413;28;20102;-76
2021/07/09 03:43:17;;;;;;;2.28;1.70;;;16.20;90.60;;;;;;5053665;28;20036;-75
2021/07/09 03:45:43;;;;;;;3.00;2.10;;;16.20;90.60;;;;;;5053341;28;20040;-76
2021/07/09 03:48:08;;;;;;;2.85;2.00;;;16.20;90.60;;;;;;5052690;28;20107;-76
2021/07/09 03:50:34;;;;;;;3.08;2.05;;;16.20;90.60;;;;;;5053512;28;20021;-76
2021/07/09 03:53:00;;;;;;;2.67;1.85;;;16.20;90.60;;;;;;5052878;28;20069;-77
2021/07/09 03:55:25;;;;;;;3.17;2.05;;;16.20;90.60;;;;;;5053490;28;20028;-75
2021/07/09 03:57:51;;;;;;;2.45;1.52;;;16.20;90.60;;;;;;5053551;28;20013;-75
2021/07/09 04:00:17;;;;;;;2.50;1.60;;;16.20;90.60;;;;;;5053122;28;20060;-75
2021/07/09 04:02:43;;;;;;;2.70;1.50;;;16.20;90.60;;;;;;5052615;28;20040;-75
2021/07/09 04:05:10;;;;;;;2.10;1.38;;;16.30;90.50;;;;;;5053320;28;20441;-75
2021/07/09 04:07:39;;;;;;;2.78;1.63;;;16.30;90.50;;;;;;5053470;28;20115;-76
2021/07/09 04:10:05;;;;;;;1.67;1.33;;;16.30;90.40;;;;;;5053268;28;20095;-74
2021/07/09 04:12:31;;;;;;;2.83;1.77;;;16.40;90.40;;;;;;5052514;28;20056;-75
2021/07/09 04:14:56;;;;;;;2.60;1.65;;;16.30;90.40;;;;;;5052952;28;20025;-75
2021/07/09 04:17:22;;;;;;;2.15;1.50;;;16.30;90.40;;;;;;5052446;28;20025;-75
2021/07/09 04:19:49;;;;;;;2.33;1.42;;;16.40;90.40;;;;;;5052878;28;20025;-76
2021/07/09 04:22:15;;;;;;;2.25;1.55;;;16.40;90.40;;;;;;5052959;28;20086;-76
2021/07/09 04:24:41;;;;;;;2.28;1.63;;;16.30;90.50;;;;;;5052370;28;20083;-75
2021/07/09 04:27:06;;;;;;;2.33;1.60;;;16.30;90.50;;;;;;5052986;28;20495;-75
2021/07/09 04:29:32;;;;;;;3.30;1.58;;;16.30;90.50;;;;;;5052956;28;20113;-76
2021/07/09 04:31:57;;;;;;;2.10;1.40;;;16.30;90.50;;;;;;5052398;28;20485;-74
2021/07/09 04:34:23;;;;;;;2.50;1.50;;;16.40;90.40;;;;;;5052484;28;20032;-75
2021/07/09 04:36:48;;;;;;;2.40;1.75;;;16.40;90.40;;;;;;5053132;28;20076;-75
2021/07/09 04:39:14;;;;;;;2.70;2.05;;;16.30;90.40;;;;;;5052836;28;20123;-75
2021/07/09 04:41:40;;;;;;;2.38;1.65;;;16.30;90.50;;;;;;5052421;28;20021;-74
2021/07/09 04:44:06;;;;;;;4.97;2.22;;;16.30;90.50;;;;;;5052742;28;20094;-75
2021/07/09 04:46:31;;;;;;;4.00;2.72;;;16.30;90.40;;;;;;5052172;28;20082;-75
2021/07/09 04:48:57;;;;;;;2.38;1.92;;;16.30;90.40;;;;;;5052587;28;20064;-75
2021/07/09 04:51:22;;;;;;;2.17;1.42;;;16.30;90.40;;;;;;5052955;28;20029;-78
2021/07/09 04:53:48;;;;;;;3.38;2.00;;;16.40;90.40;;;;;;5052464;28;20374;-74
2021/07/09 04:56:13;;;;;;;2.10;1.80;;;16.40;90.40;;;;;;5052914;28;20519;-76
2021/07/09 04:58:39;;;;;;;2.60;2.03;;;16.40;90.40;;;;;;5053036;28;20027;-77
2021/07/09 05:01:04;;;;;;;2.33;1.50;;;16.40;90.40;;;;;;5051831;28;20021;-75
2021/07/09 05:03:30;;;;;;;3.03;1.83;;;16.40;90.40;;;;;;5052803;28;20056;-75
2021/07/09 05:05:55;;;;;;;3.20;2.15;;;16.50;90.30;;;;;;5052583;28;20017;-76
2021/07/09 05:08:21;;;;;;;2.45;1.60;;;16.50;90.30;;;;;;5052899;28;20458;-77
2021/07/09 05:10:46;;;;;;;2.58;1.50;;;16.50;90.30;;;;;;5052017;28;20040;-77
2021/07/09 05:13:12;;;;;;;2.83;1.85;;;16.50;90.30;;;;;;5052226;28;20036;-77
2021/07/09 05:15:37;;;;;;;4.85;2.72;;;16.50;90.30;;;;;;5034191;28;20036;-76
2021/07/09 05:18:03;;;;;;;3.75;2.13;;;16.50;90.30;;;;;;5052432;28;20047;-77
2021/07/09 05:20:28;;;;;;;5.80;3.08;;;16.40;90.30;;;;;;5052492;28;20025;-78
2021/07/09 05:22:54;;;;;;;5.45;3.55;;;16.40;90.40;;;;;;5051918;28;20401;-77
2021/07/09 05:25:19;;;;;;;4.07;2.65;;;16.40;90.50;;;;;;5036925;28;20476;-77
2021/07/09 05:27:45;;;;;;;3.92;2.70;;;16.40;90.60;;;;;;5056453;28;20025;-76
2021/07/09 05:30:11;;;;;;;3.67;2.33;;;16.40;90.60;;;;;;5055751;28;20067;-77
2021/07/09 05:32:40;;;;;;;3.70;2.17;;;16.50;90.50;;;;;;5055805;28;20458;-78
2021/07/09 05:35:09;;;;;;;4.13;2.90;;;16.50;90.50;;;;;;5056141;28;20028;-76
2021/07/09 05:37:35;;;;;;;;;;;16.60;90.40;;;;;;5056354;28;20082;-76
2021/07/09 05:40:01;;;;;;;3.88;2.17;;;16.50;90.40;;;;;;5037956;28;19908;-76
2021/07/09 05:42:26;;;;;;;4.30;2.35;;;16.50;90.50;;;;;;5055395;28;20045;-75
2021/07/09 05:44:52;;;;;;;3.45;2.40;;;16.60;90.50;;;;;;5037184;28;20029;-76
2021/07/09 05:47:17;;;;;;;2.63;1.80;;;16.70;90.40;;;;;;5055934;28;20025;-77
2021/07/09 05:49:43;;;;;;;3.83;2.45;;;16.70;90.40;;;;;;5055725;28;20025;-78
2021/07/09 05:52:09;;;;;;;3.70;1.88;;;16.70;90.30;;;;;;5055747;28;20029;-78
2021/07/09 05:54:35;;;;;;;2.45;1.73;;;16.80;90.40;;;;;;5055309;28;20100;-76
2021/07/09 05:57:01;;;;;;;2.45;1.73;;;16.90;90.40;;;;;;5055497;28;20025;-76
2021/07/09 05:59:28;;;;;;;3.00;1.95;;;17.00;90.30;;;;;;5054808;28;20060;-77
2021/07/09 06:01:53;;;;;;;3.97;2.58;;;17.00;90.30;;;;;;5055686;28;20417;-75
2021/07/09 06:04:19;;;;;;;3.42;2.38;;;17.10;90.20;;;;;;5037822;28;20025;-76
2021/07/09 06:06:45;;;;;;;3.15;1.88;;;17.10;90.20;;;;;;5055815;28;20021;-78
2021/07/09 06:09:10;;;;;;;2.50;1.92;;;17.10;90.20;;;;;;5055460;28;20462;-77
2021/07/09 06:11:36;;;;;;;1.75;1.40;;;17.20;90.20;;;;;;5047393;28;20060;-77
2021/07/09 06:14:03;;;;;;;2.53;1.60;;;17.30;90.20;;;;;;5035179;28;20029;-77
2021/07/09 06:16:29;;;;;;;1.95;1.33;;;17.30;90.10;;;;;;5035555;28;20026;-77
2021/07/09 06:18:54;;;;;;;2.78;1.65;;;17.40;90.10;;;;;;5035428;28;20026;-75
2021/07/09 06:21:20;;;;;;;2.92;1.55;;;17.50;90.00;;;;;;5035359;28;20069;-78
2021/07/09 06:23:45;;;;;;;4.20;2.30;;;17.50;90.00;;;;;;5036011;28;20025;-75
2021/07/09 06:26:11;;;;;;;3.47;2.30;;;17.50;89.90;;;;;;5042230;28;20025;-76
2021/07/09 06:28:37;;;;;;;1.73;1.52;;;17.50;89.90;;;;;;5034707;28;20026;-76
2021/07/09 06:31:03;;;;;;;3.30;1.77;;;17.50;90.00;;;;;;5034887;28;20108;-76
2021/07/09 06:33:28;;;;;;;2.28;1.63;;;17.60;90.00;;;;;;5035203;28;20045;-77
2021/07/09 06:35:54;;;;;;;1.65;1.33;;;17.60;90.20;;;;;;5034084;28;20486;-76
2021/07/09 06:38:19;;;;;;;1.38;1.27;;;17.70;89.90;;;;;;5016813;28;21541;-77
2021/07/09 06:40:45;;;;;;;1.40;1.30;;;17.80;89.70;;;;;;5034946;28;20017;-75
2021/07/09 06:43:12;;;;;;;2.35;1.48;;;17.90;89.50;;;;;;5034084;28;20396;-75
2021/07/09 06:45:38;;;;;;;1.00;1.00;;;18.00;89.40;;;;;;5034804;28;20376;-75
2021/07/09 06:48:05;;;;;;;1.33;1.13;;;18.10;89.20;;;;;;5034968;28;20025;-75
2021/07/09 06:50:31;;;;;;;1.63;1.00;;;18.10;89.10;;;;;;5034685;28;20359;-74
2021/07/09 06:52:57;;;;;;;2.15;1.35;;;18.10;89.00;;;;;;5035008;28;20025;-75
2021/07/09 06:55:22;;;;;;;2.90;1.77;;;18.10;89.00;;;;;;5016199;28;20029;-76
2021/07/09 06:57:48;;;;;;;1.48;1.38;;;18.10;88.90;;;;;;5034884;28;20013;-76
2021/07/09 07:00:15;;;;;;;2.47;1.40;;;18.20;88.90;;;;;;5034745;28;20159;-75
2021/07/09 07:02:41;;;;;;;1.35;1.05;;;18.20;88.80;;;;;;5033852;28;20387;-75
2021/07/09 07:05:07;;;;;;;1.70;1.20;;;18.30;88.70;;;;;;5029218;28;20022;-76
2021/07/09 07:07:33;;;;;;;1.33;1.10;;;18.40;88.70;;;;;;4999903;28;20612;-75
2021/07/09 07:09:58;;;;;;;2.13;1.45;;;18.40;88.60;;;;;;5034029;28;20064;-74
2021/07/09 07:12:26;;;;;;;2.75;1.50;;;18.50;88.50;;;;;;5048583;28;20075;-75
2021/07/09 07:14:53;;;;;;;1.70;1.23;;;18.50;88.50;;;;;;5042675;28;20474;-74
2021/07/09 07:17:18;;;;;;;2.00;1.42;;;18.50;88.60;;;;;;5035682;28;20489;-73
2021/07/09 07:19:44;;;;;;;1.02;0.93;;;18.60;88.70;;;;;;5036145;28;20028;-74
2021/07/09 07:22:10;;;;;;;1.30;1.20;;;18.60;88.50;;;;;;5054040;28;20044;-75
2021/07/09 07:24:35;;;;;;;2.47;1.77;;;18.60;88.50;;;;;;5053659;28;20028;-76
2021/07/09 07:27:01;;;;;;;1.35;1.10;;;18.60;88.50;;;;;;5036159;28;20494;-75
2021/07/09 07:29:26;;;;;;;1.50;1.23;;;18.60;88.50;;;;;;5053778;28;20021;-73
2021/07/09 07:31:52;;;;;;;1.63;1.30;;;18.60;88.30;;;;;;5053987;28;20029;-73
2021/07/09 07:34:18;;;;;;;2.15;1.40;;;18.70;88.30;;;;;;5054108;28;20021;-76
2021/07/09 07:36:43;;;;;;;1.48;1.00;;;18.80;88.20;;;;;;5053514;28;20474;-73
2021/07/09 07:39:10;;;;;;;2.17;1.38;;;18.90;88.10;;;;;;5049709;28;20114;-74
2021/07/09 07:41:37;;;;;;;1.27;1.10;;;19.00;88.00;;;;;;5037422;28;20025;-74
2021/07/09 07:44:03;;;;;;;2.03;1.35;;;19.00;87.90;;;;;;5050813;28;20519;-74
2021/07/09 07:46:28;;;;;;;2.13;1.58;;;19.10;87.80;;;;;;5050207;28;20523;-73
2021/07/09 07:48:55;;;;;;;2.05;1.38;;;19.10;87.70;;;;;;5050084;28;20028;-74
2021/07/09 07:51:21;;;;;;;1.98;1.52;;;19.30;87.60;;;;;;5032368;28;20025;-74
2021/07/09 07:53:46;;;;;;;3.65;1.60;;;19.30;87.60;;;;;;5048587;28;20036;-74
2021/07/09 07:56:12;;;;;;;1.27;1.17;;;19.40;87.50;;;;;;5046749;28;20053;-74
2021/07/09 07:58:38;;;;;;;1.13;0.82;;;19.40;87.40;;;;;;5051841;28;20462;-74
2021/07/09 08:01:07;;;;;;;1.35;1.20;;;19.50;87.40;;;;;;5035057;28;20142;-75
2021/07/09 08:03:33;;;;;;;1.85;1.25;;;19.50;87.30;;;;;;5052319;28;20037;-75
2021/07/09 08:05:59;;;;;;;1.30;1.08;;;19.60;87.20;;;;;;5047662;28;20064;-73
2021/07/09 08:08:24;;;;;;;1.25;1.10;;;19.60;87.10;;;;;;5032870;28;20037;-74
2021/07/09 08:10:50;;;;;;;1.42;1.02;;;19.60;87.10;;;;;;5015436;28;20117;-74
2021/07/09 08:13:15;;;;;;;1.60;1.50;;;19.60;87.20;;;;;;5051526;28;20040;-74
2021/07/09 08:15:41;;;;;;;2.00;1.40;;;19.70;87.00;;;;;;5052968;28;20031;-75
2021/07/09 08:18:06;;;;;;;1.50;1.40;;;19.70;86.70;;;;;;5052963;28;20100;-76
2021/07/09 08:20:34;;;;;;;2.25;1.65;;;19.80;86.60;;;;;;5053153;28;20064;-74
2021/07/09 08:23:00;;;;;;;3.42;1.42;;;19.70;86.70;;;;;;5052225;28;20044;-75
2021/07/09 08:25:26;;;;;;;1.48;1.27;;;19.80;86.70;;;;;;5052937;28;20029;-76
2021/07/09 08:27:51;;;;;;;1.48;1.38;;;19.90;86.50;;;;;;5052626;28;20086;-73
2021/07/09 08:30:17;;;;;;;1.27;1.17;;;20.00;86.30;;;;;;5035073;28;20017;-76
2021/07/09 08:32:43;;;;;;;1.98;1.30;;;20.10;86.20;;;;;;5052646;28;20032;-75
2021/07/09 08:35:09;;;;;;;1.50;1.40;;;20.10;86.10;;;;;;5052998;28;20025;-75
2021/07/09 08:37:35;;;;;;;2.22;1.52;;;20.20;86.20;;;;;;5052092;28;20033;-75
2021/07/09 08:40:00;;;;;;;1.58;1.30;;;20.30;86.10;;;;;;5035114;28;20013;-75
2021/07/09 08:42:26;;;;;;;1.92;1.60;;;20.50;86.00;;;;;;5052774;28;20041;-75
2021/07/09 08:44:52;;;;;;;1.75;1.50;;;20.50;85.50;;;;;;5052635;28;20017;-74
2021/07/09 08:47:19;;;;;;;1.85;1.42;;;20.60;85.50;;;;;;5061302;28;20431;-73
2021/07/09 08:49:47;;;;;;;1.95;1.45;;;20.60;85.60;;;;;;5072963;28;20460;-75
2021/07/09 08:52:12;;;;;;;1.42;1.10;;;20.70;85.30;;;;;;5052710;28;20489;-74
2021/07/09 08:54:38;;;;;;;1.70;1.10;;;20.80;85.20;;;;;;5052962;28;20060;-76
2021/07/09 08:57:04;;;;;;;1.50;1.40;;;20.80;85.30;;;;;;5052439;28;20029;-73
2021/07/09 08:59:30;;;;;;;1.58;1.38;;;20.80;85.60;;;;;;5053976;28;20474;-73
2021/07/09 09:01:58;;;;;;;2.08;1.05;;;20.90;85.40;;;;;;5056016;28;20025;-73
2021/07/09 09:04:29;;;;;;;1.33;1.20;;;21.00;85.40;;;;;;5056858;28;20385;-75
2021/07/09 09:07:02;;;;;;;1.38;1.17;;;21.20;85.10;;;;;;5055752;28;20029;-73
2021/07/09 09:09:29;;;;;;;1.67;1.38;;;21.30;84.80;;;;;;5056667;28;20078;-74
2021/07/09 09:12:15;;;;;;;1.80;1.50;;;21.40;84.70;;;;;;5055769;28;20570;-74
2021/07/09 09:14:42;;;;;;;2.25;1.50;;;21.60;84.30;;;;;;5056323;28;20085;-75
2021/07/09 09:17:26;;;;;;;1.52;1.10;;;21.70;84.30;;;;;;5056433;28;20029;-74
2021/07/09 09:20:15;;;;;;;1.90;1.48;;;21.70;84.00;;;;;;5055381;28;20366;-75
2021/07/09 09:22:49;;;;;;;1.57;1.23;;;21.70;83.90;;;;;;5055432;28;20025;-73
2021/07/09 09:25:20;;;;;;;1.85;1.35;;;21.70;84.10;;;;;;5056402;28;20029;-74
2021/07/09 09:28:07;;;;;;;1.55;1.35;;;21.80;84.00;;;;;;5038043;28;20025;-73
2021/07/09 09:30:34;;;;;;;2.08;1.50;;;21.90;83.90;;;;;;5056207;28;20060;-73
2021/07/09 09:33:03;;;;;;;1.23;0.93;;;21.90;84.40;;;;;;5055852;28;20083;-74
2021/07/09 09:35:31;;;;;;;1.70;1.48;;;22.00;83.80;;;;;;5055670;28;20025;-73
2021/07/09 09:38:01;;;;;;;2.25;1.80;;;22.10;83.70;;;;;;5055702;28;20021;-73
2021/07/09 09:40:28;;;;;;;1.35;1.20;;;22.10;83.70;;;;;;5056104;28;20104;-73
2021/07/09 09:42:54;;;;;;;2.33;1.42;;;22.00;83.90;;;;;;5055679;28;20033;-72
2021/07/09 09:45:22;;;;;;;1.27;1.17;;;22.00;84.00;;;;;;5054769;28;20063;-73
2021/07/09 09:47:48;;;;;;;1.73;1.38;;;22.10;84.10;;;;;;5055682;28;20021;-72
2021/07/09 09:50:17;;;;;;;2.97;2.00;;;22.20;84.00;;;;;;5055234;28;20058;-73
2021/07/09 09:52:47;;;;;;;2.85;1.85;;;22.10;83.40;;;;;;5055341;28;20032;-72
2021/07/09 09:55:19;;;;;;;2.58;1.85;;;22.00;83.60;;;;;;5055633;28;20112;-74
2021/07/09 09:57:46;;;;;;;2.28;2.08;;;22.00;83.80;;;;;;5054476;28;20430;-73
2021/07/09 10:00:20;;;;;;;3.20;2.22;;;21.90;83.60;;;;;;5055296;28;20086;-75
2021/07/09 10:02:47;;;;;;;2.42;1.90;;;21.90;83.60;;;;;;5055665;28;20040;-73
2021/07/09 10:05:12;;;;;;;2.10;1.90;;;21.90;83.80;;;;;;5054366;28;20469;-73
2021/07/09 10:07:38;;;;;;;1.55;1.42;;;21.90;83.90;;;;;;5055652;28;20037;-74
2021/07/09 10:10:04;;;;;;;1.58;1.17;;;21.90;83.80;;;;;;5054653;28;20385;-73
2021/07/09 10:12:31;;;;;;;1.75;1.48;;;22.00;83.90;;;;;;5036575;28;20064;-73
2021/07/09 10:14:57;;;;;;;2.13;1.70;;;22.10;83.60;;;;;;5055397;28;20108;-74
2021/07/09 10:17:25;;;;;;;1.40;1.30;;;22.20;83.20;;;;;;5054949;28;20040;-74
2021/07/09 10:19:54;;;;;;;2.22;1.95;;;22.20;83.50;;;;;;5054679;28;20027;-72
2021/07/09 10:22:20;;;;;;;2.10;1.50;;;22.10;83.60;;;;;;5051449;28;20025;-72
2021/07/09 10:24:49;;;;;;;1.45;1.35;;;22.00;83.70;;;;;;5054400;28;20551;-73
2021/07/09 10:27:19;;;;;;;1.90;1.75;;;22.20;83.70;;;;;;5055149;28;20028;-72
2021/07/09 10:29:47;;;;;;;1.83;1.63;;;22.40;83.10;;;;;;5054818;28;20064;-73
2021/07/09 10:32:29;;;;;;;1.80;1.45;;;22.70;82.60;;;;;;5055117;28;20492;-71
2021/07/09 10:34:54;;;;;;;2.45;1.95;;;22.90;82.40;;;;;;5052465;28;20383;-72
2021/07/09 10:37:21;;;;;;;2.45;2.00;;;23.20;81.90;;;;;;5037135;28;20039;-72
2021/07/09 10:39:50;;;;;;;2.67;2.47;;;23.20;81.70;;;;;;5059157;28;20024;-72
2021/07/09 10:42:15;;;;;;;2.30;1.60;;;23.30;81.90;;;;;;5064632;28;20037;-72
2021/07/09 10:45:01;;;;;;;1.92;1.75;;;23.40;81.90;;;;;;5054301;28;20282;-72
2021/07/09 10:47:42;;;;;;;2.65;2.15;;;23.50;81.90;;;;;;5035739;28;20389;-72
2021/07/09 10:50:10;;;;;;;2.08;1.73;;;23.60;81.80;;;;;;5054584;28;20024;-73
2021/07/09 10:52:51;;;;;;;2.15;1.77;;;23.70;81.70;;;;;;5054360;28;20033;-72
2021/07/09 10:55:27;;;;;;;2.10;1.92;;;23.60;81.70;;;;;;5054396;28;20104;-72
2021/07/09 10:58:21;;;;;;;2.70;1.92;;;23.20;82.30;;;;;;5054825;28;20032;-72
2021/07/09 11:01:08;;;;;;;2.42;1.90;;;22.90;82.60;;;;;;5053989;28;20053;-73
2021/07/09 11:03:39;;;;;;;3.38;2.03;;;22.70;83.00;;;;;;5053699;28;20481;-73
2021/07/09 11:06:10;;;;;;;3.22;2.63;;;22.50;82.70;;;;;;5054563;28;20108;-73
2021/07/09 11:08:38;;;;;;;2.38;2.17;;;22.50;82.90;;;;;;5053890;28;20053;-72
2021/07/09 11:11:03;;;;;;;2.47;2.00;;;22.70;82.10;;;;;;5052156;28;20045;-72
2021/07/09 11:13:44;;;;;;;2.85;1.90;;;22.80;82.10;;;;;;5053708;28;20444;-73
2021/07/09 11:16:25;;;;;;;2.45;2.25;;;23.10;81.60;;;;;;5053383;28;20021;-73
2021/07/09 11:18:59;;;;;;;1.63;1.52;;;23.20;80.90;;;;;;5053768;28;20025;-72
2021/07/09 11:21:31;;;;;;;1.77;1.67;;;23.20;80.80;;;;;;5053774;28;20021;-72
2021/07/09 11:24:09;;;;;;;1.60;1.50;;;23.00;80.60;;;;;;5053678;28;20428;-73
2021/07/09 11:26:36;;;;;;;1.20;1.10;;;23.00;81.10;;;;;;5053480;28;20032;-73
2021/07/09 11:29:21;;;;;;;1.48;1.33;;;23.00;81.20;;;;;;5053992;28;20028;-73
2021/07/09 11:31:47;;;;;;;1.58;1.30;;;23.60;80.40;;;;;;5052896;28;20029;-72
2021/07/09 11:34:15;;;;;;;1.42;1.30;;;24.50;78.40;;;;;;5053665;28;20108;-72
2021/07/09 11:36:58;;;;;;;2.13;1.70;;;25.30;77.10;;;;;;5053921;28;20446;-73
2021/07/09 11:39:31;;;;;;;1.35;1.25;;;26.20;75.70;;;;;;5053727;28;20021;-73
2021/07/09 11:42:07;;;;;;;1.70;1.60;;;26.90;75.10;;;;;;5053682;28;20033;-73
2021/07/09 11:44:47;;;;;;;2.17;1.98;;;27.50;73.80;;;;;;5053798;28;20017;-72
2021/07/09 11:47:16;;;;;;;2.15;1.70;;;27.50;74.10;;;;;;5052638;28;20028;-73
2021/07/09 11:49:47;;;;;;;1.83;1.60;;;27.80;74.00;;;;;;5051903;28;20505;-72
2021/07/09 11:52:14;;;;;;;2.17;1.67;;;28.00;73.90;;;;;;5049371;28;20036;-72
2021/07/09 11:54:47;;;;;;;2.03;1.75;;;28.10;74.20;;;;;;5052972;28;20100;-74
2021/07/09 11:57:15;;;;;;;2.63;1.70;;;28.20;73.50;;;;;;5053300;28;20155;-73
2021/07/09 11:59:44;;;;;;;2.13;1.70;;;28.30;73.40;;;;;;5053281;28;20017;-73
2021/07/09 12:02:13;;;;;;;1.88;1.60;;;28.30;73.20;;;;;;5052666;28;20496;-72
2021/07/09 12:04:59;;;;;;;1.55;1.35;;;28.50;73.60;;;;;;5052916;28;20023;-74
2021/07/09 12:07:36;;;;;;;2.13;1.92;;;28.60;73.20;;;;;;5035362;28;20025;-72
2021/07/09 12:10:12;;;;;;;2.15;1.92;;;28.00;73.70;;;;;;5053174;28;20162;-72
2021/07/09 12:12:48;;;;;;;1.95;1.65;;;27.30;74.80;;;;;;5052403;28;20059;-74
2021/07/09 12:15:17;;;;;;;3.55;2.75;;;26.60;75.80;;;;;;5015740;28;20037;-72
2021/07/09 12:17:48;;;;;;;2.78;2.22;;;26.00;76.40;;;;;;5049879;28;20107;-73
2021/07/09 12:20:19;;;;;;;2.55;2.17;;;25.90;76.80;;;;;;5053028;28;20405;-73
2021/07/09 12:22:51;;;;;;;2.08;1.60;;;26.10;76.40;;;;;;5052793;28;20393;-73
2021/07/09 12:25:27;;;;;;;2.38;1.70;;;26.50;75.80;;;;;;5052839;28;20432;-73
2021/07/09 12:27:55;;;;;;;1.60;1.50;;;27.00;75.00;;;;;;5052908;28;20021;-73
2021/07/09 12:30:24;;;;;;;1.38;1.27;;;27.30;74.40;;;;;;5051902;28;20465;-75
2021/07/09 12:32:53;;;;;;;1.30;1.20;;;27.30;74.20;;;;;;5058216;28;20096;-73
2021/07/09 12:35:20;;;;;;;1.63;1.52;;;27.30;74.30;;;;;;5035552;28;20025;-73
2021/07/09 12:38:11;;;;;;;1.40;1.30;;;27.30;74.00;;;;;;5052920;28;20044;-74
2021/07/09 12:40:44;;;;;;;3.00;2.08;;;27.10;74.10;;;;;;5052817;28;20025;-74
2021/07/09 12:43:13;;;;;;;1.55;1.45;;;27.00;74.10;;;;;;5052838;28;20032;-73
2021/07/09 12:45:39;;;;;;;1.67;1.57;;;27.00;74.70;;;;;;5051537;28;20095;-74
2021/07/09 12:48:08;;;;;;;2.00;1.75;;;27.10;74.40;;;;;;5052539;28;20574;-73
2021/07/09 12:50:40;;;;;;;;;;;27.30;73.90;;;;;;5053128;28;20100;-72